Terminal Aerodrome Forecast
Issued by NWS

Home | Current Version | Previous Version | Text Only | Print | Product List | Glossary On
Versions: 1 2 3 4 5 6 7 8 9 10 11 12 13
000
FTUS45 KRIW 251700
TAFRKS
TAF
KRKS 251721Z 2518/2618 26022G30KT P6SM SCT050
     FM260100 25013KT P6SM FEW100
     FM260600 24008KT P6SM FEW100
     FM261500 16006KT P6SM SKC=

USA.gov is the U.S. government's official web portal to all federal, state and local government web resources and services.